x

St Georges - 8nm Nw Of Crescent City, Ca (46027) Wave Buoy

11:50am - Wed 10th Feb 2016 All times are PST. -8 hours from GMT.

  • Sig Wave height 4.9ft
  • Swell Direction
  • Peak Period 11s
  • Average Period 7s
  • Wind
    11mph, 13mph gusts
  • Sea Temp 54°f
  • Air Temp 56°f
  • Sea Pressure 1025.9mb
  • St Georges - 8nm Nw Of Crescent City, Ca
  • St Georges - 8nm Nw Of Crescent City, Ca

More Historic Weather Station data

Upgrade to MSW Pro to gain access to the past 30 days of data for over 8000 Wavebouys and Weather Stations around the globe.

Join Pro

Comparision Forecast

View Surf forecast
   
Wed 02/10 11:50am 5ft 11s 7s 11 13 mph 1025.9mb 54f 56f
10:50am 5ft 12s 7s 9 11 mph 1026.3mb 54f 55f
9:50am 5ft 11s 7s 11 16 mph 1025.9mb 53f 55f
8:50am 5ft 11s 7s 7 11 mph 1025.5mb 54f 53f
7:50am 5.5ft 11s 8s 11 13 mph 1024.9mb 53f 53f
6:50am 5ft 11s 8s 9 11 mph 1024.7mb 53f 54f
5:50am 5ft 12s 7s 11 16 mph 1023.7mb 53f 54f
4:50am 5ft 12s 8s 16 18 mph 1022.5mb 53f 54f
3:50am 5.5ft 12s 9s 13 16 mph 1022.3mb 53f 55f
2:50am 5ft 11s 9s 7 9 mph 1022.3mb 53f 55f
1:50am 5.5ft 12s 9s 7 9 mph 1021.9mb 53f 54f
12:50am 5ft 12s 9s 13 18 mph 1021mb 53f 54f
Tue 02/09 11:50pm 6ft 12s 9s 7 9 mph 1022.3mb 53f 54f
10:50pm 5ft 11s 8s  -  2 mph 1021.4mb 53f 54f
9:50pm 5ft 12s 8s 9 11 mph 1020.5mb 53f 54f
8:50pm 5ft 14s 9s 4
mph
1019.5mb 53f 54f
7:50pm 5ft 14s 8s 7 9 mph 1019.5mb 54f 55f
6:50pm 5ft 14s 8s 7 9 mph 1019.9mb 54f 55f
5:50pm 5ft 11s 8s 9
mph
1020.5mb 55f 57f
4:50pm 5ft 14s 8s 11 13 mph 1020.9mb 55f 58f
3:50pm 5.5ft 12s 9s 11 13 mph 1021.6mb 55f 58f
2:50pm 7ft 13s 10s 11 13 mph 1022mb 54f 57f
1:50pm 6ft 14s 9s 11 13 mph 1022mb 54f 58f
12:50pm 7ft 13s 10s 13 16 mph 1021.2mb 54f 59f
11:50am 7ft 13s 10s 7 13 mph 1020.7mb 54f 58f
10:50am 7.5ft 12s 11s 7 9 mph 1020.4mb 54f 58f
9:50am 7ft 13s 10s 4 7 mph 1020.5mb 53f 56f
8:50am 8ft 13s 11s 4 7 mph 1021mb 53f 56f
7:50am 7.5ft 14s 11s 4 7 mph 1020.7mb 53f 56f
6:50am 8ft 14s 11s 9 11 mph 1020.4mb 53f 56f
5:50am 5.5ft 13s 10s 7 9 mph 1020.4mb 53f 57f
4:50am 7ft 14s 11s 7 9 mph 1019.7mb 53f 56f
3:50am 6.5ft 15s 11s 7 11 mph 1019.9mb 53f 57f
2:50am 8ft 15s 12s 7 11 mph 1020.2mb 53f 56f
1:50am 7.5ft 15s 11s 7 9 mph 1020.5mb 54f 55f
12:50am 7ft 15s 11s 4 9 mph 1020.8mb 54f 55f
Mon 02/08 11:50pm 7ft 15s 11s 2 4 mph 1020.8mb 54f 57f
10:50pm 8.5ft 15s 11s 2 4 mph 1020.6mb 54f 57f
9:50pm 7ft 13s 10s 4
mph
1020.9mb 54f 55f
8:50pm 8ft 15s 11s 4 9 mph 1020.9mb 54f 58f
7:50pm 7.5ft 14s 11s 2 4 mph 1021mb 55f 62f
6:50pm 9ft 15s 11s 4 7 mph 1021.3mb 54f 61f
5:50pm 9ft 15s 12s 4 7 mph 1021.1mb 54f 66f
4:50pm 8.5ft 15s 11s 4
mph
1021.2mb 55f 63f
3:50pm 9ft 15s 12s 2 4 mph 1021mb 54f 62f
2:50pm 9ft 15s 12s 2 4 mph 1021mb 55f 59f
1:50pm 8ft 16s 12s 4 9 mph 1021.1mb 54f 58f
12:50pm 8ft 16s 12s 7 9 mph 1021.5mb 54f 65f
11:50am 8.5ft 16s 13s 9 11 mph 1022.1mb 53f 61f
10:50am 8ft 16s 13s 7 9 mph 1022.3mb 53f 59f
9:50am 9ft 17s 13s 7 9 mph 1022.3mb 53f 62f
8:50am 6.5ft 17s 11s 7 11 mph 1022.2mb 53f 60f
7:50am 7ft 17s 12s 2 7 mph 1022.5mb 53f 56f
6:50am 6.5ft 17s 11s 4 7 mph 1022.7mb 52f 59f
5:50am 6.5ft 19s 11s 7 9 mph 1022.3mb 53f 62f
4:50am 5.5ft 19s 10s 4 7 mph 1022.5mb 53f 61f
3:50am 5.5ft 19s 9s 2
mph
1022.8mb 53f 61f
2:50am 5ft 19s 9s 2 4 mph 1023.4mb 53f 62f
1:50am 5ft 11s 8s 7 9 mph 1023.2mb 53f 59f
12:50am 5ft 12s 9s 7 9 mph 1023.7mb 53f 56f
Sun 02/07 11:50pm 5ft 11s 9s 7
mph
1024.1mb 53f 56f
10:50pm 4.5ft 12s 8s 4 7 mph 1024.2mb 53f 56f
9:50pm 5ft 11s 9s 7
mph
1024.4mb 53f 55f
8:50pm 4.5ft 12s 9s 7
mph
1024.5mb 54f 55f
7:50pm 4.5ft 12s 9s 7
mph
1025mb 54f 55f
6:50pm 4.5ft 12s 9s 4 7 mph 1025.2mb 54f 55f
5:50pm 4.5ft 13s 8s 4
mph
1025.1mb 54f 55f
4:50pm 4.5ft 12s 9s 7
mph
1025.1mb 54f 56f
3:50pm 4.5ft 14s 9s 4
mph
1025.3mb 54f 55f
2:50pm 4.5ft 14s 9s 7
mph
1025.4mb 54f 55f
1:50pm 5ft 12s 9s 9
mph
1025.8mb 54f 55f
12:50pm 5.5ft 12s 9s 7 9 mph 1026.6mb 54f 55f
11:50am 6ft 13s 9s 4 7 mph 1027.8mb 53f 55f
10:50am 6ft 12s 9s 2 4 mph 1028.2mb 53f 54f
9:50am 7ft 11s 9s  -  2 mph 1028.5mb 53f 53f
8:50am 7ft 11s 9s 4 7 mph 1028.6mb 52f 53f
7:50am 7ft 12s 9s 4 7 mph 1028.4mb 52f 52f
6:50am 7ft 11s 9s 4 7 mph 1028.5mb 53f 53f
5:50am 7ft 11s 9s 9 11 mph 1028.6mb 53f 53f
4:50am 7ft 12s 9s 9 13 mph 1028.8mb 53f 54f
3:50am 6ft 11s 9s 7
mph
1028.9mb 53f 53f
2:50am 6.5ft 12s 9s 2 4 mph 1028.9mb 53f 53f
1:50am 6.5ft 12s 9s 4 7 mph 1029.2mb 53f 53f
12:50am 7.5ft 13s 10s 2 4 mph 1029.4mb 53f 53f
Sat 02/06 11:50pm 6ft 13s 9s 7 9 mph 1029.7mb 53f 53f
10:50pm 7.5ft 14s 10s 4
mph
1029.6mb 53f 54f
9:50pm 7ft 13s 9s 4 7 mph 1029.3mb 53f 54f
8:50pm 7.5ft 13s 9s 7 9 mph 1029.3mb 53f 54f